Time;durP1;ratioP1;P1;durP2;ratioP2;P2;SDS_P1;SDS_P2;PMS_P1;PMS_P2;Temp;Humidity;BMP_temperature;BMP_pressure;BME280_temperature;BME280_humidity;BME280_pressure;Samples;Min_cycle;Max_cycle;Signal;HPM_P1;HPM_P2
2023/03/13 00:00:30;;;;;;;0.30;0.30;;;5.60;99.90;;;;;;5051753;28;20220;-49
2023/03/13 00:02:57;;;;;;;0.40;0.40;;;5.70;99.90;;;;;;5050269;28;20724;-48
2023/03/13 00:05:24;;;;;;;0.50;0.50;;;5.80;99.90;;;;;;5048305;28;20679;-49
2023/03/13 00:07:54;;;;;;;0.93;0.77;;;5.80;99.90;;;;;;5049778;28;20776;-46
2023/03/13 00:10:21;;;;;;;0.50;0.50;;;5.80;99.90;;;;;;5051239;28;20220;-49
2023/03/13 00:12:53;;;;;;;0.50;0.50;;;5.90;99.90;;;;;;5049696;28;20575;-49
2023/03/13 00:15:20;;;;;;;0.40;0.40;;;6.00;99.90;;;;;;5051031;28;20302;-50
2023/03/13 00:17:47;;;;;;;0.30;0.30;;;6.00;99.90;;;;;;5051355;28;20220;-50
2023/03/13 00:20:16;;;;;;;0.40;0.30;;;6.00;99.90;;;;;;5048817;28;20600;-47
2023/03/13 00:22:43;;;;;;;0.70;0.50;;;5.90;99.90;;;;;;5048289;28;20206;-51
2023/03/13 00:25:10;;;;;;;0.93;0.30;;;5.90;99.90;;;;;;5051523;28;20201;-50
2023/03/13 00:27:37;;;;;;;0.20;0.20;;;5.80;99.90;;;;;;5054001;28;20200;-50
2023/03/13 00:30:06;;;;;;;0.60;0.43;;;5.80;99.90;;;;;;5053829;28;20666;-48
2023/03/13 00:32:33;;;;;;;0.23;0.23;;;5.80;99.90;;;;;;5052987;28;20812;-49
2023/03/13 00:35:00;;;;;;;0.30;0.30;;;5.90;99.90;;;;;;5052819;28;20220;-49
2023/03/13 00:37:27;;;;;;;0.30;0.30;;;5.90;99.90;;;;;;5053822;28;20203;-49
2023/03/13 00:39:54;;;;;;;1.37;0.57;;;5.80;99.90;;;;;;5053340;28;20200;-49
2023/03/13 00:42:22;;;;;;;0.40;0.40;;;5.80;99.90;;;;;;5054548;28;20205;-47
2023/03/13 00:44:49;;;;;;;1.03;0.60;;;5.80;99.90;;;;;;5054737;28;20196;-50
2023/03/13 00:47:17;;;;;;;1.53;0.30;;;5.80;99.90;;;;;;5054462;28;20278;-45
2023/03/13 00:49:44;;;;;;;0.40;0.40;;;5.80;99.90;;;;;;5054700;28;20207;-48
2023/03/13 00:52:11;;;;;;;0.33;0.33;;;5.80;99.90;;;;;;5053143;28;20662;-50
2023/03/13 00:54:38;;;;;;;3.13;0.93;;;5.80;99.90;;;;;;5051714;28;20217;-48
2023/03/13 00:57:05;;;;;;;0.50;0.50;;;5.80;99.90;;;;;;5047329;28;20212;-49
2023/03/13 00:59:33;;;;;;;0.70;0.70;;;5.70;99.90;;;;;;5054140;28;20566;-49
2023/03/13 01:02:00;;;;;;;0.67;0.67;;;5.70;99.90;;;;;;5054096;28;20228;-47
2023/03/13 01:04:28;;;;;;;1.10;0.47;;;5.70;99.90;;;;;;5053394;28;20246;-48
2023/03/13 01:06:55;;;;;;;0.30;0.30;;;5.70;99.90;;;;;;5053921;28;20200;-48
2023/03/13 01:09:22;;;;;;;0.40;0.40;;;5.80;99.90;;;;;;5054306;28;20259;-50
2023/03/13 01:11:49;;;;;;;0.60;0.50;;;5.80;99.90;;;;;;5054137;28;20655;-48
2023/03/13 01:14:18;;;;;;;1.50;0.50;;;5.70;99.90;;;;;;5052966;28;20271;-49
2023/03/13 01:16:45;;;;;;;1.67;0.40;;;5.70;99.90;;;;;;5052874;28;20199;-50
2023/03/13 01:19:14;;;;;;;1.70;0.30;;;5.70;99.90;;;;;;5054090;28;20199;-49
2023/03/13 01:21:43;;;;;;;0.43;0.43;;;5.80;99.90;;;;;;5053797;28;20665;-49
2023/03/13 01:24:10;;;;;;;0.30;0.30;;;5.90;99.90;;;;;;5054035;28;20195;-49
2023/03/13 01:26:37;;;;;;;0.40;0.27;;;5.90;99.90;;;;;;5053728;28;20204;-46
2023/03/13 01:29:04;;;;;;;0.43;0.43;;;5.80;99.90;;;;;;5053028;28;20253;-47
2023/03/13 01:31:33;;;;;;;0.20;0.20;;;5.80;99.90;;;;;;5053615;28;20220;-45
2023/03/13 01:34:02;;;;;;;0.40;0.40;;;5.80;99.90;;;;;;5033978;28;20220;-47
2023/03/13 01:36:30;;;;;;;0.47;0.47;;;5.80;99.90;;;;;;5033214;28;20562;-49
2023/03/13 01:39:00;;;;;;;0.40;0.30;;;5.80;99.90;;;;;;5046815;28;20267;-49
2023/03/13 01:41:28;;;;;;;0.40;0.40;;;5.70;99.90;;;;;;5053399;28;20224;-48
2023/03/13 01:43:55;;;;;;;0.30;0.30;;;5.70;99.90;;;;;;5053722;28;20205;-48
2023/03/13 01:46:23;;;;;;;0.50;0.50;;;5.80;99.90;;;;;;5052134;28;20224;-50
2023/03/13 01:48:54;;;;;;;0.40;0.40;;;5.80;99.90;;;;;;5052634;28;20289;-48
2023/03/13 01:51:24;;;;;;;0.30;0.30;;;5.80;99.90;;;;;;5053254;28;20279;-51
2023/03/13 01:53:56;;;;;;;0.20;0.20;;;5.70;99.90;;;;;;5044627;28;20258;-49
2023/03/13 01:56:28;;;;;;;0.30;0.30;;;5.80;99.90;;;;;;5052767;28;20206;-49
2023/03/13 01:58:58;;;;;;;0.30;0.30;;;5.80;99.90;;;;;;5053383;28;20558;-49
2023/03/13 02:01:25;;;;;;;0.23;0.23;;;5.70;99.90;;;;;;5052049;28;20251;-49
2023/03/13 02:03:53;;;;;;;0.20;0.20;;;5.80;99.90;;;;;;5052275;28;20240;-49
2023/03/13 02:06:22;;;;;;;0.20;0.20;;;5.80;99.90;;;;;;5052271;28;20210;-49
2023/03/13 02:08:54;;;;;;;0.70;0.20;;;5.80;99.90;;;;;;5053379;28;20205;-50
2023/03/13 02:11:29;;;;;;;0.20;0.20;;;5.90;99.90;;;;;;5052971;28;20223;-48
2023/03/13 02:13:58;;;;;;;0.20;0.20;;;6.00;99.90;;;;;;5051891;28;20259;-48
2023/03/13 02:16:28;;;;;;;0.30;0.30;;;6.20;99.90;;;;;;5052341;28;20202;-49
2023/03/13 02:18:55;;;;;;;0.30;0.30;;;6.30;99.90;;;;;;5051238;28;20210;-49
2023/03/13 02:21:36;;;;;;;0.17;0.17;;;6.40;99.90;;;;;;5051692;28;20218;-49
2023/03/13 02:24:13;;;;;;;0.53;0.53;;;6.40;99.90;;;;;;5045514;28;20199;-47
2023/03/13 02:26:41;;;;;;;0.20;0.20;;;6.50;99.90;;;;;;5052747;28;20207;-48
2023/03/13 02:29:17;;;;;;;1.13;0.20;;;6.50;99.90;;;;;;5052559;28;20633;-48
2023/03/13 02:31:44;;;;;;;0.10;0.10;;;6.60;99.90;;;;;;5051630;28;20713;-48
2023/03/13 02:34:14;;;;;;;0.30;0.30;;;6.60;99.90;;;;;;5052037;28;20201;-48
2023/03/13 02:36:42;;;;;;;0.20;0.20;;;6.60;99.90;;;;;;5050407;28;20203;-48
2023/03/13 02:39:11;;;;;;;0.23;0.20;;;6.60;99.90;;;;;;5052427;28;20201;-49
2023/03/13 02:41:39;;;;;;;0.20;0.20;;;6.60;99.90;;;;;;5052407;28;20254;-49
2023/03/13 02:44:08;;;;;;;0.80;0.10;;;6.60;99.90;;;;;;5052615;28;20269;-49
2023/03/13 02:46:45;;;;;;;0.10;0.10;;;6.60;99.90;;;;;;5049869;28;20199;-48
2023/03/13 02:49:21;;;;;;;0.17;0.10;;;6.60;99.90;;;;;;5052077;28;20205;-48
2023/03/13 02:51:48;;;;;;;0.13;0.10;;;6.60;99.90;;;;;;5052156;28;20229;-48
2023/03/13 02:54:19;;;;;;;0.20;0.20;;;6.60;99.90;;;;;;5052351;28;20212;-49
2023/03/13 02:56:48;;;;;;;0.20;0.20;;;6.60;99.90;;;;;;5052237;28;20199;-48
2023/03/13 02:59:17;;;;;;;0.27;0.27;;;6.50;99.90;;;;;;5049450;28;20202;-47
2023/03/13 03:01:45;;;;;;;0.27;0.20;;;6.60;99.90;;;;;;5050624;28;20269;-49
2023/03/13 03:04:12;;;;;;;0.93;0.20;;;6.60;99.90;;;;;;5052056;28;20249;-49
2023/03/13 03:06:39;;;;;;;0.10;0.10;;;6.60;99.90;;;;;;5052030;28;20227;-49
2023/03/13 03:09:06;;;;;;;0.60;0.60;;;6.70;99.90;;;;;;5052193;28;20208;-48
2023/03/13 03:11:33;;;;;;;0.30;0.30;;;6.60;99.90;;;;;;5050353;28;20222;-48
2023/03/13 03:14:00;;;;;;;0.10;0.10;;;6.60;99.90;;;;;;5051325;28;20250;-49
2023/03/13 03:16:28;;;;;;;0.10;0.10;;;6.60;99.90;;;;;;5051447;28;20269;-49
2023/03/13 03:18:55;;;;;;;0.23;0.07;;;6.60;99.90;;;;;;5051918;28;20199;-48
2023/03/13 03:21:22;;;;;;;0.70;0.10;;;6.50;99.90;;;;;;5051959;28;20706;-48
2023/03/13 03:23:50;;;;;;;1.70;0.20;;;6.40;99.90;;;;;;5050814;28;20228;-48
2023/03/13 03:26:17;;;;;;;0.20;0.20;;;6.40;99.90;;;;;;5052293;28;20200;-49
2023/03/13 03:28:44;;;;;;;0.10;0.10;;;6.40;99.90;;;;;;5051692;28;20197;-49
2023/03/13 03:31:13;;;;;;;0.10;0.10;;;6.50;99.90;;;;;;5051866;28;20227;-48
2023/03/13 03:33:42;;;;;;;0.60;0.17;;;6.50;99.90;;;;;;5051612;28;20681;-48
2023/03/13 03:36:10;;;;;;;0.07;0.07;;;6.50;99.90;;;;;;5050624;28;20224;-48
2023/03/13 03:38:38;;;;;;;0.20;0.20;;;6.50;99.90;;;;;;5051606;28;20647;-48
2023/03/13 03:41:05;;;;;;;0.10;0.10;;;6.50;99.90;;;;;;5046744;28;20219;-49
2023/03/13 03:43:32;;;;;;;1.70;0.10;;;6.60;99.90;;;;;;5048096;28;20199;-48
2023/03/13 03:45:59;;;;;;;0.70;0.23;;;6.50;99.90;;;;;;5051601;28;20200;-49
2023/03/13 03:48:26;;;;;;;1.63;0.20;;;6.60;99.90;;;;;;5050074;28;20240;-48
2023/03/13 03:50:55;;;;;;;0.70;0.20;;;6.60;99.90;;;;;;5051374;28;20285;-48
2023/03/13 03:53:22;;;;;;;0.40;0.13;;;6.70;99.90;;;;;;5051646;28;20203;-48
2023/03/13 03:55:49;;;;;;;0.20;0.10;;;6.60;99.90;;;;;;5051662;28;20226;-48
2023/03/13 03:58:16;;;;;;;0.20;0.10;;;6.60;99.90;;;;;;5045435;28;20246;-49
2023/03/13 04:00:44;;;;;;;0.10;0.10;;;6.60;99.90;;;;;;5052738;28;20248;-48
2023/03/13 04:03:11;;;;;;;0.10;0.10;;;6.60;99.90;;;;;;5067505;28;20329;-47
2023/03/13 04:05:39;;;;;;;0.50;0.20;;;6.60;99.90;;;;;;5067216;28;20257;-48
2023/03/13 04:08:08;;;;;;;0.13;0.13;;;6.60;99.90;;;;;;5058751;28;20195;-49
2023/03/13 04:10:35;;;;;;;0.20;0.20;;;6.60;99.90;;;;;;5055173;28;20693;-47
2023/03/13 04:13:02;;;;;;;0.20;0.10;;;6.60;99.90;;;;;;5046465;28;20730;-50
2023/03/13 04:15:29;;;;;;;2.20;0.10;;;6.60;99.90;;;;;;5054599;28;20215;-48
2023/03/13 04:17:56;;;;;;;0.27;0.10;;;6.60;99.90;;;;;;5054192;28;20199;-49
2023/03/13 04:20:23;;;;;;;0.03;0.03;;;6.70;99.90;;;;;;5054938;28;20227;-50
2023/03/13 04:22:52;;;;;;;0.30;0.30;;;6.70;99.90;;;;;;5055022;28;20604;-50
2023/03/13 04:25:21;;;;;;;0.20;0.20;;;6.70;99.90;;;;;;5055314;28;20204;-49
2023/03/13 04:27:48;;;;;;;0.20;0.20;;;6.70;99.90;;;;;;5054750;28;20693;-49
2023/03/13 04:30:15;;;;;;;0.10;0.10;;;6.70;99.90;;;;;;5052262;28;20266;-48
2023/03/13 04:32:42;;;;;;;0.60;0.13;;;6.70;99.90;;;;;;5054752;28;20253;-48
2023/03/13 04:35:09;;;;;;;0.30;0.10;;;6.70;99.90;;;;;;5055002;28;20217;-48
2023/03/13 04:37:36;;;;;;;0.10;0.10;;;6.70;99.90;;;;;;5055327;28;20205;-48
2023/03/13 04:40:04;;;;;;;0.10;0.10;;;6.70;99.90;;;;;;5054101;28;20198;-48
2023/03/13 04:42:32;;;;;;;0.20;0.20;;;6.80;99.90;;;;;;5054024;28;20302;-48
2023/03/13 04:44:59;;;;;;;0.20;0.20;;;6.90;99.90;;;;;;5046088;28;20242;-48
2023/03/13 04:47:26;;;;;;;0.20;0.20;;;6.90;99.90;;;;;;5054427;28;20199;-48
2023/03/13 04:49:53;;;;;;;0.20;0.20;;;6.80;99.90;;;;;;5054724;28;20217;-50
2023/03/13 04:52:21;;;;;;;0.17;0.17;;;6.80;99.90;;;;;;5054222;28;20647;-49
2023/03/13 04:54:49;;;;;;;0.20;0.20;;;6.80;99.90;;;;;;5054418;28;20749;-50
2023/03/13 04:57:16;;;;;;;0.30;0.10;;;6.80;99.90;;;;;;5052729;28;20577;-48
2023/03/13 04:59:45;;;;;;;0.47;0.10;;;6.90;99.90;;;;;;5053452;28;20204;-48
2023/03/13 05:02:12;;;;;;;0.60;0.17;;;6.80;99.90;;;;;;5055474;28;20219;-48
2023/03/13 05:04:40;;;;;;;0.20;0.20;;;6.80;99.90;;;;;;5054123;28;20207;-49
2023/03/13 05:07:07;;;;;;;0.10;0.10;;;6.80;99.90;;;;;;5054218;28;20259;-49
2023/03/13 05:09:33;;;;;;;0.10;0.10;;;6.90;99.90;;;;;;5054088;28;20742;-48
2023/03/13 05:12:01;;;;;;;0.20;0.20;;;7.00;99.90;;;;;;5053878;28;20709;-48
2023/03/13 05:14:28;;;;;;;0.20;0.10;;;6.90;99.90;;;;;;5040357;28;20671;-48
2023/03/13 05:16:56;;;;;;;1.10;0.20;;;6.90;99.90;;;;;;5053702;28;20215;-49
2023/03/13 05:19:23;;;;;;;0.00;0.00;;;7.00;99.90;;;;;;5054075;28;20327;-49
2023/03/13 05:21:50;;;;;;;0.10;0.10;;;6.90;99.90;;;;;;5053879;28;20569;-49
2023/03/13 05:24:17;;;;;;;0.10;0.10;;;6.90;99.90;;;;;;5054053;28;20234;-48
2023/03/13 05:26:44;;;;;;;0.30;0.10;;;7.00;99.90;;;;;;5053626;28;20644;-48
2023/03/13 05:29:11;;;;;;;0.30;0.10;;;6.90;99.90;;;;;;5052182;28;20680;-49
2023/03/13 05:31:38;;;;;;;0.10;0.10;;;6.90;99.90;;;;;;5051044;28;20261;-49
2023/03/13 05:34:06;;;;;;;1.50;0.20;;;6.90;99.90;;;;;;5053682;28;20335;-49
2023/03/13 05:36:34;;;;;;;0.10;0.10;;;6.90;99.90;;;;;;5053608;28;20277;-49
2023/03/13 05:39:01;;;;;;;1.03;0.10;;;7.00;99.90;;;;;;5053683;28;20206;-49
2023/03/13 05:41:28;;;;;;;0.10;0.10;;;7.00;99.90;;;;;;5053544;28;20272;-48
2023/03/13 05:43:55;;;;;;;0.10;0.10;;;7.10;99.90;;;;;;5048104;28;20205;-47
2023/03/13 05:46:22;;;;;;;0.10;0.10;;;7.10;99.90;;;;;;5046387;28;20195;-48
2023/03/13 05:48:49;;;;;;;0.10;0.10;;;7.00;99.90;;;;;;5033694;28;20260;-49
2023/03/13 05:51:17;;;;;;;0.20;0.20;;;7.00;99.90;;;;;;5064882;28;20230;-49
2023/03/13 05:53:44;;;;;;;0.10;0.10;;;7.00;99.90;;;;;;5073298;28;20229;-49
2023/03/13 05:56:11;;;;;;;1.80;0.33;;;7.10;99.90;;;;;;5084600;22;20281;-47
2023/03/13 05:58:38;;;;;;;0.97;0.30;;;7.10;99.90;;;;;;5049842;28;20276;-50
2023/03/13 06:01:09;;;;;;;0.30;0.30;;;7.00;99.90;;;;;;5051310;28;20606;-47
2023/03/13 06:03:36;;;;;;;0.20;0.20;;;7.00;99.90;;;;;;5052171;28;20347;-46
2023/03/13 06:06:04;;;;;;;0.13;0.10;;;7.00;99.90;;;;;;5062395;28;20216;-47
2023/03/13 06:08:32;;;;;;;1.50;0.30;;;7.00;99.90;;;;;;5072187;28;20202;-48
2023/03/13 06:11:00;;;;;;;0.30;0.17;;;7.00;99.90;;;;;;5072360;28;20207;-47
2023/03/13 06:13:28;;;;;;;0.13;0.10;;;7.00;99.90;;;;;;5072122;28;20643;-47
2023/03/13 06:15:56;;;;;;;1.37;0.30;;;7.00;99.90;;;;;;5062841;28;20213;-47
2023/03/13 06:18:24;;;;;;;2.13;0.30;;;7.00;99.90;;;;;;5056517;28;20688;-48
2023/03/13 06:20:57;;;;;;;2.87;0.40;;;7.00;99.90;;;;;;5058136;28;20528;-48
2023/03/13 06:23:24;;;;;;;0.20;0.10;;;7.00;99.90;;;;;;5071544;28;20211;-47
2023/03/13 06:25:53;;;;;;;0.97;0.93;;;7.00;99.90;;;;;;5072023;28;20356;-47
2023/03/13 06:28:20;;;;;;;0.47;0.33;;;7.00;99.90;;;;;;5071667;28;20264;-47
2023/03/13 06:30:47;;;;;;;0.40;0.40;;;7.00;99.90;;;;;;5075321;28;20618;-48
2023/03/13 06:33:14;;;;;;;0.40;0.30;;;6.90;99.90;;;;;;5070122;28;20199;-47
2023/03/13 06:35:41;;;;;;;0.40;0.30;;;6.90;99.90;;;;;;5071670;28;20238;-48
2023/03/13 06:38:09;;;;;;;0.80;0.53;;;7.10;99.90;;;;;;5071392;28;20668;-47
2023/03/13 06:40:37;;;;;;;0.13;0.10;;;7.10;99.90;;;;;;5071836;28;20208;-47
2023/03/13 06:43:05;;;;;;;0.20;0.10;;;7.20;99.90;;;;;;5071528;28;20688;-47
2023/03/13 06:45:32;;;;;;;0.43;0.20;;;7.30;99.90;;;;;;5064733;28;20299;-47
2023/03/13 06:47:59;;;;;;;0.10;0.10;;;7.40;99.90;;;;;;5064648;28;20266;-47
2023/03/13 06:50:26;;;;;;;0.10;0.10;;;7.40;99.90;;;;;;5070605;28;20201;-46
2023/03/13 06:52:56;;;;;;;0.17;0.17;;;7.50;99.90;;;;;;5056429;28;20204;-46
2023/03/13 06:55:23;;;;;;;0.13;0.10;;;7.60;99.90;;;;;;5062106;28;20762;-46
2023/03/13 06:57:54;;;;;;;2.80;0.67;;;7.60;99.90;;;;;;5071058;28;20207;-47
2023/03/13 07:00:23;;;;;;;0.30;0.30;;;7.60;99.90;;;;;;5071446;28;20250;-47
2023/03/13 07:02:52;;;;;;;0.77;0.20;;;7.70;99.90;;;;;;5071223;28;20215;-47
2023/03/13 07:05:19;;;;;;;0.60;0.20;;;7.70;99.90;;;;;;5062984;28;20463;-47
2023/03/13 07:07:47;;;;;;;0.23;0.23;;;7.80;99.90;;;;;;5069439;28;20229;-47
2023/03/13 07:10:14;;;;;;;0.30;0.30;;;7.90;99.90;;;;;;5070980;28;20202;-46
2023/03/13 07:12:41;;;;;;;0.30;0.30;;;7.90;99.90;;;;;;5070867;28;20210;-46
2023/03/13 07:15:08;;;;;;;0.10;0.10;;;8.00;99.90;;;;;;5071284;28;20264;-47
2023/03/13 07:17:37;;;;;;;0.53;0.10;;;8.00;99.90;;;;;;5070765;28;20252;-47
2023/03/13 07:20:08;;;;;;;0.20;0.20;;;8.00;99.90;;;;;;5064895;28;20199;-46
2023/03/13 07:22:35;;;;;;;0.20;0.20;;;8.00;99.90;;;;;;5058599;28;20199;-46
2023/03/13 07:25:03;;;;;;;1.53;0.20;;;8.10;99.90;;;;;;5070006;28;20201;-46
2023/03/13 07:27:30;;;;;;;0.20;0.20;;;8.20;99.90;;;;;;5057291;28;20703;-46
2023/03/13 07:29:57;;;;;;;0.30;0.20;;;8.20;99.90;;;;;;5054804;28;20399;-46
2023/03/13 07:32:24;;;;;;;0.83;0.50;;;8.20;99.90;;;;;;5068101;28;20268;-47
2023/03/13 07:34:53;;;;;;;0.30;0.30;;;8.30;99.90;;;;;;5060316;28;20199;-46
2023/03/13 07:37:19;;;;;;;1.70;0.20;;;8.20;99.90;;;;;;5066561;28;20758;-46
2023/03/13 07:39:46;;;;;;;0.30;0.20;;;8.20;99.90;;;;;;5068836;28;20264;-46
2023/03/13 07:42:13;;;;;;;0.70;0.30;;;8.10;99.90;;;;;;5069863;28;20264;-47
2023/03/13 07:44:40;;;;;;;0.53;0.27;;;8.10;99.90;;;;;;5059525;28;20273;-47
2023/03/13 07:47:07;;;;;;;0.30;0.30;;;8.10;99.90;;;;;;5070328;28;20305;-47
2023/03/13 07:49:38;;;;;;;0.30;0.30;;;8.20;99.90;;;;;;5061517;28;20203;-47
2023/03/13 07:52:06;;;;;;;0.50;0.50;;;8.10;99.90;;;;;;5066643;28;20203;-47
2023/03/13 07:54:33;;;;;;;0.33;0.33;;;8.20;99.90;;;;;;5062656;28;20203;-47
2023/03/13 07:57:01;;;;;;;0.83;0.40;;;8.30;99.90;;;;;;5070513;28;20227;-47
2023/03/13 07:59:28;;;;;;;0.80;0.40;;;8.30;99.90;;;;;;5056190;28;20203;-47
2023/03/13 08:01:55;;;;;;;1.50;0.60;;;8.40;99.90;;;;;;5050631;28;20808;-47
2023/03/13 08:04:22;;;;;;;1.03;0.60;;;8.40;99.90;;;;;;5069518;28;20210;-47
2023/03/13 08:06:50;;;;;;;0.60;0.57;;;8.50;99.90;;;;;;5069725;28;20211;-47
2023/03/13 08:09:18;;;;;;;2.37;1.00;;;8.70;99.90;;;;;;5063728;28;20204;-48
2023/03/13 08:11:45;;;;;;;0.70;0.70;;;8.90;99.90;;;;;;5067450;28;20256;-49
2023/03/13 08:14:12;;;;;;;1.57;0.70;;;9.00;99.90;;;;;;5070884;28;20239;-48
2023/03/13 08:16:39;;;;;;;0.50;0.50;;;9.20;99.90;;;;;;5070399;28;20226;-48
2023/03/13 08:19:06;;;;;;;2.83;0.77;;;9.30;99.90;;;;;;5070243;28;20208;-48
2023/03/13 08:21:34;;;;;;;1.47;0.83;;;9.20;99.90;;;;;;5060880;28;20208;-48
2023/03/13 08:24:05;;;;;;;0.63;0.63;;;9.30;99.90;;;;;;5058574;28;20295;-48
2023/03/13 08:26:36;;;;;;;1.20;1.03;;;9.30;99.90;;;;;;5053319;28;20649;-46
2023/03/13 08:29:05;;;;;;;0.47;0.47;;;9.20;99.90;;;;;;5062298;28;20261;-49
2023/03/13 08:31:34;;;;;;;0.67;0.60;;;9.20;99.90;;;;;;5068151;28;20203;-49
2023/03/13 08:34:01;;;;;;;0.90;0.43;;;9.30;99.90;;;;;;5063089;28;20256;-49
2023/03/13 08:36:31;;;;;;;0.47;0.40;;;9.30;99.90;;;;;;5065367;28;20284;-48
2023/03/13 08:38:59;;;;;;;1.93;0.37;;;9.50;99.90;;;;;;5062182;28;20238;-46
2023/03/13 08:41:28;;;;;;;0.37;0.37;;;9.50;99.90;;;;;;5062503;28;20195;-46
2023/03/13 08:43:57;;;;;;;2.33;0.30;;;9.50;99.90;;;;;;5050824;28;20661;-46
2023/03/13 08:46:24;;;;;;;0.80;0.47;;;9.70;99.90;;;;;;5061034;28;20593;-49
2023/03/13 08:48:51;;;;;;;0.83;0.30;;;10.00;99.90;;;;;;5053726;28;20265;-48
2023/03/13 08:51:19;;;;;;;2.60;0.80;;;10.30;99.90;;;;;;5061673;28;20200;-48
2023/03/13 08:53:47;;;;;;;0.70;0.57;;;10.50;99.90;;;;;;5067574;28;20199;-47
2023/03/13 08:56:15;;;;;;;1.73;1.23;;;11.00;99.90;;;;;;5073652;28;20291;-48
2023/03/13 08:58:42;;;;;;;2.27;1.90;;;11.30;99.90;;;;;;5073480;28;20236;-48
2023/03/13 09:01:12;;;;;;;2.70;1.10;;;11.80;99.90;;;;;;5073844;28;20235;-49
2023/03/13 09:03:40;;;;;;;0.50;0.50;;;12.30;99.90;;;;;;5057625;28;20202;-47
2023/03/13 09:06:08;;;;;;;2.60;0.60;;;13.20;99.90;;;;;;5053576;28;20279;-48
2023/03/13 09:08:35;;;;;;;0.73;0.40;;;14.20;99.90;;;;;;5057530;28;20255;-48
2023/03/13 09:11:04;;;;;;;1.83;0.53;;;15.10;99.90;;;;;;5068299;28;20205;-48
2023/03/13 09:13:33;;;;;;;0.77;0.60;;;15.90;99.90;;;;;;5072700;28;20211;-47
2023/03/13 09:16:02;;;;;;;1.17;0.60;;;16.30;99.90;;;;;;5072270;28;20536;-48
2023/03/13 09:18:31;;;;;;;1.67;0.70;;;16.30;99.90;;;;;;5072448;28;20278;-48
2023/03/13 09:20:58;;;;;;;0.50;0.50;;;16.50;99.90;;;;;;5072533;28;20598;-48
2023/03/13 09:23:25;;;;;;;2.00;0.40;;;16.80;99.90;;;;;;5064617;28;20264;-48
2023/03/13 09:25:54;;;;;;;2.10;0.30;;;17.10;99.90;;;;;;5060410;28;20649;-47
2023/03/13 09:28:22;;;;;;;1.47;0.80;;;17.00;99.90;;;;;;5062614;28;20611;-47
2023/03/13 09:30:49;;;;;;;1.30;0.40;;;16.90;99.90;;;;;;5071221;28;20291;-47
2023/03/13 09:33:17;;;;;;;1.70;0.80;;;16.80;99.90;;;;;;5063759;28;20201;-47
2023/03/13 09:35:49;;;;;;;2.23;1.07;;;16.70;99.90;;;;;;5072122;28;20274;-47
2023/03/13 09:38:17;;;;;;;0.93;0.50;;;16.10;99.90;;;;;;5072474;28;20221;-48
2023/03/13 09:40:47;;;;;;;0.97;0.40;;;15.90;99.90;;;;;;5063259;28;20197;-48
2023/03/13 09:43:27;;;;;;;0.43;0.30;;;16.30;99.90;;;;;;5071629;28;20201;-48
2023/03/13 09:45:59;;;;;;;0.70;0.70;;;16.60;99.90;;;;;;5058545;28;20225;-48
2023/03/13 09:48:32;;;;;;;2.63;0.50;;;16.00;99.90;;;;;;5069593;28;20205;-48
2023/03/13 09:51:07;;;;;;;2.73;1.10;;;16.50;99.90;;;;;;5068639;28;20212;-48
2023/03/13 09:53:41;;;;;;;0.70;0.63;;;17.10;99.90;;;;;;5068316;28;20250;-48
2023/03/13 09:56:16;;;;;;;2.73;1.17;;;17.60;99.90;;;;;;5065998;28;20224;-48
2023/03/13 09:58:50;;;;;;;1.40;0.60;;;18.40;99.90;;;;;;5071696;28;20217;-47
2023/03/13 10:01:21;;;;;;;0.50;0.50;;;18.50;99.90;;;;;;5072392;28;20675;-47
2023/03/13 10:03:56;;;;;;;0.90;0.67;;;18.70;99.90;;;;;;5072475;28;20679;-47
2023/03/13 10:06:28;;;;;;;4.90;0.80;;;18.90;99.90;;;;;;5072331;28;20706;-48
2023/03/13 10:09:00;;;;;;;4.73;1.57;;;19.10;99.90;;;;;;5063111;28;20666;-48
2023/03/13 10:11:29;;;;;;;3.33;0.70;;;19.20;99.90;;;;;;5056567;28;20202;-48
2023/03/13 10:14:02;;;;;;;0.90;0.53;;;19.30;99.90;;;;;;5052031;28;20243;-47
2023/03/13 10:16:34;;;;;;;2.50;0.90;;;19.30;99.90;;;;;;5052561;28;20225;-48
2023/03/13 10:19:12;;;;;;;0.73;0.70;;;19.20;99.90;;;;;;5059842;28;20243;-48
2023/03/13 10:21:42;;;;;;;2.40;0.40;;;19.10;99.90;;;;;;5072241;28;20211;-49
2023/03/13 10:24:17;;;;;;;1.00;0.30;;;19.70;99.90;;;;;;5070512;28;20197;-48
2023/03/13 10:26:44;;;;;;;0.77;0.30;;;20.10;99.90;;;;;;5064095;28;20350;-49
2023/03/13 10:29:22;;;;;;;0.40;0.40;;;20.50;99.90;;;;;;5065290;28;20197;-48
2023/03/13 10:31:56;;;;;;;0.50;0.40;;;20.40;99.90;;;;;;5068353;28;20263;-48
2023/03/13 10:34:24;;;;;;;1.03;0.30;;;20.20;99.90;;;;;;5067340;28;20284;-48
2023/03/13 10:36:58;;;;;;;0.33;0.33;;;19.40;99.90;;;;;;5071427;28;20690;-48
2023/03/13 10:39:27;;;;;;;0.40;0.40;;;18.80;99.90;;;;;;5072358;28;20205;-48
2023/03/13 10:41:59;;;;;;;0.50;0.50;;;18.60;99.90;;;;;;5064910;28;20201;-47
2023/03/13 10:44:32;;;;;;;0.97;0.60;;;18.60;99.90;;;;;;5060454;28;20197;-48
2023/03/13 10:47:01;;;;;;;0.50;0.50;;;18.50;99.90;;;;;;5061609;28;20213;-48
2023/03/13 10:49:29;;;;;;;4.60;0.60;;;18.80;99.90;;;;;;5066421;28;20323;-48
2023/03/13 10:51:59;;;;;;;0.70;0.70;;;19.10;99.90;;;;;;5060118;28;20271;-48
2023/03/13 10:54:28;;;;;;;0.70;0.40;;;19.20;99.90;;;;;;5051799;28;20722;-49
2023/03/13 10:57:25;;;;;;;0.87;0.57;;;19.40;99.90;;;;;;5067713;28;20230;-48
2023/03/13 10:59:54;;;;;;;1.40;0.40;;;18.90;99.90;;;;;;5067015;28;20735;-48
2023/03/13 11:02:25;;;;;;;0.63;0.40;;;18.80;99.90;;;;;;5056223;28;20198;-48
2023/03/13 11:04:53;;;;;;;0.67;0.40;;;18.60;99.90;;;;;;5070459;28;20646;-49
2023/03/13 11:07:30;;;;;;;2.20;0.80;;;18.60;99.90;;;;;;5070876;28;20221;-49
2023/03/13 11:10:17;;;;;;;0.43;0.43;;;18.70;99.90;;;;;;5066630;28;20197;-48
2023/03/13 11:12:45;;;;;;;2.47;0.60;;;18.60;99.90;;;;;;5061156;28;20202;-48
2023/03/13 11:15:16;;;;;;;0.30;0.30;;;18.50;99.90;;;;;;5066841;28;20258;-47
2023/03/13 11:17:43;;;;;;;0.57;0.50;;;18.60;99.90;;;;;;5065715;28;20270;-48
2023/03/13 11:20:22;;;;;;;1.20;0.40;;;18.60;99.90;;;;;;5071157;28;20244;-48
2023/03/13 11:23:14;;;;;;;1.67;0.70;;;18.50;99.90;;;;;;5051183;28;20463;-48
2023/03/13 11:25:49;;;;;;;0.40;0.40;;;18.40;99.90;;;;;;5051193;28;20229;-48
2023/03/13 11:28:44;;;;;;;0.63;0.50;;;18.50;99.90;;;;;;5051986;28;20251;-48
2023/03/13 11:31:14;;;;;;;3.63;0.73;;;18.50;99.90;;;;;;5066596;28;20196;-48
2023/03/13 11:33:52;;;;;;;2.07;0.80;;;18.40;99.90;;;;;;5060441;28;20255;-48
2023/03/13 11:36:27;;;;;;;0.60;0.60;;;18.10;99.90;;;;;;5063772;28;20626;-48
2023/03/13 11:39:03;;;;;;;0.50;0.50;;;18.20;99.90;;;;;;5061070;28;20221;-47
2023/03/13 11:41:49;;;;;;;2.60;0.70;;;18.40;99.90;;;;;;5068145;28;20200;-49
2023/03/13 11:44:28;;;;;;;0.77;0.40;;;18.70;99.90;;;;;;5064248;28;20200;-48
2023/03/13 11:47:15;;;;;;;1.40;1.30;;;18.90;99.90;;;;;;5069461;28;20282;-48
2023/03/13 11:50:03;;;;;;;7.43;1.77;;;18.90;99.90;;;;;;5065118;28;20645;-48
2023/03/13 11:52:43;;;;;;;0.50;0.40;;;18.90;99.90;;;;;;5067193;28;20216;-48
2023/03/13 11:55:29;;;;;;;0.50;0.50;;;18.90;99.90;;;;;;5070639;28;20227;-48
2023/03/13 11:58:14;;;;;;;0.57;0.30;;;18.80;99.90;;;;;;5070687;28;20220;-48
2023/03/13 12:00:46;;;;;;;1.60;0.33;;;18.50;99.90;;;;;;5070703;28;20566;-48
2023/03/13 12:03:19;;;;;;;0.70;0.40;;;18.60;99.80;;;;;;5070672;28;20197;-48
2023/03/13 12:05:51;;;;;;;1.70;0.33;;;18.60;99.90;;;;;;5061038;28;20225;-50
2023/03/13 12:08:21;;;;;;;0.67;0.57;;;18.50;99.90;;;;;;5055699;28;20248;-47
2023/03/13 12:10:56;;;;;;;0.40;0.40;;;18.60;99.90;;;;;;5050947;28;20217;-48
2023/03/13 12:13:28;;;;;;;0.30;0.30;;;18.60;99.90;;;;;;5050652;28;20705;-48
2023/03/13 12:16:00;;;;;;;2.00;0.40;;;18.40;99.90;;;;;;5050357;28;20529;-47
2023/03/13 12:18:32;;;;;;;0.40;0.40;;;18.50;99.90;;;;;;5062097;28;20282;-48
2023/03/13 12:21:04;;;;;;;0.20;0.20;;;18.60;99.90;;;;;;5070039;28;20205;-48
2023/03/13 12:23:41;;;;;;;0.70;0.30;;;18.60;99.90;;;;;;5065994;28;20334;-48
2023/03/13 12:26:14;;;;;;;0.23;0.23;;;18.60;99.90;;;;;;5054444;28;20217;-48
2023/03/13 12:28:45;;;;;;;0.20;0.20;;;18.70;99.30;;;;;;5054225;28;20209;-48
2023/03/13 12:31:21;;;;;;;0.67;0.17;;;18.60;99.90;;;;;;5054590;28;20579;-48
2023/03/13 12:33:55;;;;;;;0.73;0.23;;;18.60;98.40;;;;;;5054339;28;20737;-47
2023/03/13 12:36:29;;;;;;;0.20;0.20;;;18.40;99.20;;;;;;5073262;28;20301;-48
2023/03/13 12:38:58;;;;;;;0.57;0.37;;;18.50;98.70;;;;;;5073097;28;20220;-49
2023/03/13 12:41:31;;;;;;;0.37;0.30;;;18.50;98.40;;;;;;5065835;28;20199;-48
2023/03/13 12:43:58;;;;;;;0.33;0.10;;;18.60;99.10;;;;;;5074366;28;20256;-47
2023/03/13 12:46:42;;;;;;;0.17;0.10;;;18.70;99.70;;;;;;5074103;28;20221;-48
2023/03/13 12:49:34;;;;;;;0.30;0.10;;;18.70;99.80;;;;;;5073753;28;20254;-48
2023/03/13 12:52:15;;;;;;;0.20;0.20;;;18.80;99.90;;;;;;5068097;28;20205;-48
2023/03/13 12:55:23;;;;;;;0.27;0.20;;;18.80;99.90;;;;;;5074101;28;20255;-48
2023/03/13 12:58:13;;;;;;;0.37;0.37;;;18.80;99.90;;;;;;5063368;28;20279;-48
2023/03/13 13:00:44;;;;;;;0.23;0.20;;;18.80;99.90;;;;;;5072747;28;20728;-48
2023/03/13 13:03:28;;;;;;;0.20;0.20;;;18.80;99.90;;;;;;5072660;28;20205;-48
2023/03/13 13:06:06;;;;;;;0.20;0.10;;;18.90;99.90;;;;;;5072525;28;20216;-48